sensor_id;sensor_type;location;lat;lon;timestamp;pressure;altitude;pressure_sealevel;temperature;humidity
49529;BME280;35423;37.320;-121.762;2023-03-16T00:00:47;99862.28;;;33.69;13.08
49529;BME280;35423;37.320;-121.762;2023-03-16T00:03:15;99865.03;;;33.62;13.19
49529;BME280;35423;37.320;-121.762;2023-03-16T00:05:41;99862.61;;;33.54;13.02
49529;BME280;35423;37.320;-121.762;2023-03-16T00:08:11;99859.07;;;33.25;13.05
49529;BME280;35423;37.320;-121.762;2023-03-16T00:10:42;99855.23;;;33.26;13.33
49529;BME280;35423;37.320;-121.762;2023-03-16T00:13:06;99857.82;;;33.02;13.50
49529;BME280;35423;37.320;-121.762;2023-03-16T00:15:33;99858.39;;;32.81;13.40
49529;BME280;35423;37.320;-121.762;2023-03-16T00:17:59;99861.43;;;32.95;13.44
49529;BME280;35423;37.320;-121.762;2023-03-16T00:20:40;99863.34;;;32.55;13.78
49529;BME280;35423;37.320;-121.762;2023-03-16T00:23:06;99868.61;;;32.33;13.93
49529;BME280;35423;37.320;-121.762;2023-03-16T00:25:32;99870.38;;;31.97;14.04
49529;BME280;35423;37.320;-121.762;2023-03-16T00:28:00;99871.37;;;32.10;14.22
49529;BME280;35423;37.320;-121.762;2023-03-16T00:30:26;99870.84;;;31.97;14.29
49529;BME280;35423;37.320;-121.762;2023-03-16T00:32:50;99869.91;;;31.50;14.34
49529;BME280;35423;37.320;-121.762;2023-03-16T00:35:15;99869.72;;;31.21;14.26
49529;BME280;35423;37.320;-121.762;2023-03-16T00:37:41;99869.88;;;31.55;14.62
49529;BME280;35423;37.320;-121.762;2023-03-16T00:40:11;99869.04;;;31.01;14.90
49529;BME280;35423;37.320;-121.762;2023-03-16T00:42:38;99867.70;;;30.61;15.02
49529;BME280;35423;37.320;-121.762;2023-03-16T00:45:04;99871.85;;;30.23;15.36
49529;BME280;35423;37.320;-121.762;2023-03-16T00:47:32;99869.17;;;30.15;15.52
49529;BME280;35423;37.320;-121.762;2023-03-16T00:49:57;99868.90;;;29.80;15.78
49529;BME280;35423;37.320;-121.762;2023-03-16T00:52:23;99870.45;;;29.96;15.96
49529;BME280;35423;37.320;-121.762;2023-03-16T00:54:50;99869.68;;;29.64;16.09
49529;BME280;35423;37.320;-121.762;2023-03-16T00:57:17;99868.67;;;28.78;16.40
49529;BME280;35423;37.320;-121.762;2023-03-16T00:59:43;99870.76;;;29.19;16.48
49529;BME280;35423;37.320;-121.762;2023-03-16T01:02:10;99871.46;;;28.73;16.79
49529;BME280;35423;37.320;-121.762;2023-03-16T01:04:35;99870.53;;;28.51;17.03
49529;BME280;35423;37.320;-121.762;2023-03-16T01:07:07;99872.04;;;28.29;17.08
49529;BME280;35423;37.320;-121.762;2023-03-16T01:09:35;99873.84;;;28.11;17.21
49529;BME280;35423;37.320;-121.762;2023-03-16T01:12:02;99879.10;;;28.14;17.31
49529;BME280;35423;37.320;-121.762;2023-03-16T01:14:26;99883.87;;;27.74;17.46
49529;BME280;35423;37.320;-121.762;2023-03-16T01:16:51;99886.35;;;28.07;17.62
49529;BME280;35423;37.320;-121.762;2023-03-16T01:19:23;99881.88;;;27.85;17.78
49529;BME280;35423;37.320;-121.762;2023-03-16T01:21:52;99880.72;;;27.47;17.76
49529;BME280;35423;37.320;-121.762;2023-03-16T01:24:21;99883.56;;;27.30;17.93
49529;BME280;35423;37.320;-121.762;2023-03-16T01:26:47;99885.81;;;27.40;17.98
49529;BME280;35423;37.320;-121.762;2023-03-16T01:29:13;99890.99;;;27.20;18.08
49529;BME280;35423;37.320;-121.762;2023-03-16T01:31:38;99898.16;;;27.01;18.19
49529;BME280;35423;37.320;-121.762;2023-03-16T01:34:06;99898.76;;;26.82;18.25
49529;BME280;35423;37.320;-121.762;2023-03-16T01:36:32;99899.71;;;26.60;18.36
49529;BME280;35423;37.320;-121.762;2023-03-16T01:38:58;99901.47;;;26.34;18.55
49529;BME280;35423;37.320;-121.762;2023-03-16T01:41:24;99900.08;;;26.44;18.70
49529;BME280;35423;37.320;-121.762;2023-03-16T01:43:52;99901.20;;;26.28;18.76
49529;BME280;35423;37.320;-121.762;2023-03-16T01:46:22;99902.29;;;26.31;18.89
49529;BME280;35423;37.320;-121.762;2023-03-16T01:48:54;99907.06;;;25.98;18.90
49529;BME280;35423;37.320;-121.762;2023-03-16T01:51:18;99908.52;;;26.04;19.06
49529;BME280;35423;37.320;-121.762;2023-03-16T01:53:43;99911.17;;;25.84;19.15
49529;BME280;35423;37.320;-121.762;2023-03-16T01:56:09;99911.06;;;25.67;19.35
49529;BME280;35423;37.320;-121.762;2023-03-16T01:58:35;99909.69;;;25.49;19.46
49529;BME280;35423;37.320;-121.762;2023-03-16T02:00:59;99910.05;;;25.36;19.51
49529;BME280;35423;37.320;-121.762;2023-03-16T02:03:30;99909.58;;;25.75;19.70
49529;BME280;35423;37.320;-121.762;2023-03-16T02:06:18;99901.08;;;25.40;19.70
49529;BME280;35423;37.320;-121.762;2023-03-16T02:08:44;99894.83;;;25.22;19.65
49529;BME280;35423;37.320;-121.762;2023-03-16T02:11:10;99889.40;;;25.03;19.86
49529;BME280;35423;37.320;-121.762;2023-03-16T02:13:35;99888.19;;;25.12;19.92
49529;BME280;35423;37.320;-121.762;2023-03-16T02:16:03;99889.08;;;25.00;20.10
49529;BME280;35423;37.320;-121.762;2023-03-16T02:18:40;99888.25;;;24.90;20.19
49529;BME280;35423;37.320;-121.762;2023-03-16T02:21:12;99893.59;;;24.46;20.32
49529;BME280;35423;37.320;-121.762;2023-03-16T02:23:35;99892.79;;;24.56;20.48
49529;BME280;35423;37.320;-121.762;2023-03-16T02:26:06;99896.11;;;24.47;20.64
49529;BME280;35423;37.320;-121.762;2023-03-16T02:28:33;99899.35;;;24.37;20.78
49529;BME280;35423;37.320;-121.762;2023-03-16T02:30:53;99901.49;;;24.23;20.85
49529;BME280;35423;37.320;-121.762;2023-03-16T02:33:27;99905.98;;;24.09;20.88
49529;BME280;35423;37.320;-121.762;2023-03-16T02:35:53;99913.45;;;23.92;20.96
49529;BME280;35423;37.320;-121.762;2023-03-16T02:38:29;99916.16;;;24.28;21.14
49529;BME280;35423;37.320;-121.762;2023-03-16T02:40:58;99918.88;;;23.92;21.06
49529;BME280;35423;37.320;-121.762;2023-03-16T02:43:23;99917.00;;;23.60;21.18
49529;BME280;35423;37.320;-121.762;2023-03-16T02:45:51;99918.76;;;23.46;21.06
49529;BME280;35423;37.320;-121.762;2023-03-16T02:48:22;99926.53;;;23.78;21.18
49529;BME280;35423;37.320;-121.762;2023-03-16T02:50:53;99931.56;;;23.45;21.42
49529;BME280;35423;37.320;-121.762;2023-03-16T02:53:11;99936.69;;;23.39;21.64
49529;BME280;35423;37.320;-121.762;2023-03-16T02:55:40;99940.06;;;23.34;21.77
49529;BME280;35423;37.320;-121.762;2023-03-16T02:58:06;99937.08;;;23.49;21.84
49529;BME280;35423;37.320;-121.762;2023-03-16T03:00:32;99934.70;;;23.45;21.79
49529;BME280;35423;37.320;-121.762;2023-03-16T03:02:59;99934.24;;;23.37;21.80
49529;BME280;35423;37.320;-121.762;2023-03-16T03:05:25;99936.81;;;23.30;21.90
49529;BME280;35423;37.320;-121.762;2023-03-16T03:07:50;99943.27;;;23.26;22.07
49529;BME280;35423;37.320;-121.762;2023-03-16T03:10:18;99949.36;;;23.21;22.02
49529;BME280;35423;37.320;-121.762;2023-03-16T03:12:41;99949.85;;;22.91;22.13
49529;BME280;35423;37.320;-121.762;2023-03-16T03:15:09;99946.16;;;23.08;22.14
49529;BME280;35423;37.320;-121.762;2023-03-16T03:17:33;99940.73;;;23.02;22.12
49529;BME280;35423;37.320;-121.762;2023-03-16T03:20:00;99934.19;;;22.94;22.21
49529;BME280;35423;37.320;-121.762;2023-03-16T03:22:25;99932.94;;;22.87;22.11
49529;BME280;35423;37.320;-121.762;2023-03-16T03:24:49;99928.65;;;22.99;22.24
49529;BME280;35423;37.320;-121.762;2023-03-16T03:27:15;99927.18;;;23.18;22.51
49529;BME280;35423;37.320;-121.762;2023-03-16T03:29:41;99925.04;;;22.56;22.85
49529;BME280;35423;37.320;-121.762;2023-03-16T03:32:07;99921.02;;;22.68;22.83
49529;BME280;35423;37.320;-121.762;2023-03-16T03:34:43;99917.54;;;22.88;22.93
49529;BME280;35423;37.320;-121.762;2023-03-16T03:37:09;99918.80;;;22.54;23.07
49529;BME280;35423;37.320;-121.762;2023-03-16T03:39:37;99922.32;;;22.47;23.08
49529;BME280;35423;37.320;-121.762;2023-03-16T03:42:01;99924.97;;;22.37;23.25
49529;BME280;35423;37.320;-121.762;2023-03-16T03:44:34;99927.76;;;22.48;23.38
49529;BME280;35423;37.320;-121.762;2023-03-16T03:47:06;99928.31;;;22.29;23.50
49529;BME280;35423;37.320;-121.762;2023-03-16T03:49:33;99930.51;;;22.38;23.66
49529;BME280;35423;37.320;-121.762;2023-03-16T03:52:05;99935.13;;;22.06;23.90
49529;BME280;35423;37.320;-121.762;2023-03-16T03:54:30;99939.44;;;22.01;23.81
49529;BME280;35423;37.320;-121.762;2023-03-16T03:57:04;99940.14;;;21.93;23.77
49529;BME280;35423;37.320;-121.762;2023-03-16T03:59:30;99938.27;;;21.80;23.72
49529;BME280;35423;37.320;-121.762;2023-03-16T04:02:03;99940.29;;;21.81;23.93
49529;BME280;35423;37.320;-121.762;2023-03-16T04:04:30;99939.04;;;21.48;23.97
49529;BME280;35423;37.320;-121.762;2023-03-16T04:06:56;99937.66;;;21.38;24.07
49529;BME280;35423;37.320;-121.762;2023-03-16T04:09:21;99943.08;;;21.55;24.18
49529;BME280;35423;37.320;-121.762;2023-03-16T04:11:49;99950.40;;;21.51;24.31
49529;BME280;35423;37.320;-121.762;2023-03-16T04:14:17;99955.91;;;21.43;24.38
49529;BME280;35423;37.320;-121.762;2023-03-16T04:16:44;99958.40;;;21.17;24.46
49529;BME280;35423;37.320;-121.762;2023-03-16T04:19:11;99958.22;;;21.31;24.63
49529;BME280;35423;37.320;-121.762;2023-03-16T04:21:45;99964.29;;;21.13;24.69
49529;BME280;35423;37.320;-121.762;2023-03-16T04:24:10;99969.37;;;21.21;24.79
49529;BME280;35423;37.320;-121.762;2023-03-16T04:26:35;99973.19;;;21.09;24.91
49529;BME280;35423;37.320;-121.762;2023-03-16T04:29:01;99973.08;;;20.76;25.11
49529;BME280;35423;37.320;-121.762;2023-03-16T04:31:26;99970.03;;;20.91;24.93
49529;BME280;35423;37.320;-121.762;2023-03-16T04:33:57;99964.30;;;20.80;25.04
49529;BME280;35423;37.320;-121.762;2023-03-16T04:36:24;99967.00;;;20.96;25.01
49529;BME280;35423;37.320;-121.762;2023-03-16T04:38:52;99968.10;;;20.41;25.10
49529;BME280;35423;37.320;-121.762;2023-03-16T04:41:18;99967.14;;;20.51;25.08
49529;BME280;35423;37.320;-121.762;2023-03-16T04:43:49;99968.21;;;20.48;25.06
49529;BME280;35423;37.320;-121.762;2023-03-16T04:46:15;99967.34;;;20.36;25.19
49529;BME280;35423;37.320;-121.762;2023-03-16T04:48:41;99969.82;;;20.58;25.27
49529;BME280;35423;37.320;-121.762;2023-03-16T04:51:08;99979.95;;;20.25;25.39
49529;BME280;35423;37.320;-121.762;2023-03-16T04:53:36;99991.65;;;20.44;25.43
49529;BME280;35423;37.320;-121.762;2023-03-16T04:56:02;99996.23;;;20.55;25.45
49529;BME280;35423;37.320;-121.762;2023-03-16T04:58:30;100005.57;;;20.25;25.57
49529;BME280;35423;37.320;-121.762;2023-03-16T05:01:04;100013.28;;;19.92;25.61
49529;BME280;35423;37.320;-121.762;2023-03-16T05:03:31;100017.48;;;19.84;25.52
49529;BME280;35423;37.320;-121.762;2023-03-16T05:05:59;100018.59;;;20.27;25.44
49529;BME280;35423;37.320;-121.762;2023-03-16T05:08:26;100020.37;;;19.97;25.42
49529;BME280;35423;37.320;-121.762;2023-03-16T05:10:56;100024.25;;;19.87;25.49
49529;BME280;35423;37.320;-121.762;2023-03-16T05:13:21;100028.78;;;20.02;25.52
49529;BME280;35423;37.320;-121.762;2023-03-16T05:15:47;100035.19;;;19.94;25.61
49529;BME280;35423;37.320;-121.762;2023-03-16T05:18:24;100038.53;;;19.84;25.76
49529;BME280;35423;37.320;-121.762;2023-03-16T05:20:50;100034.71;;;19.73;25.90
49529;BME280;35423;37.320;-121.762;2023-03-16T05:23:16;100030.09;;;19.69;25.82
49529;BME280;35423;37.320;-121.762;2023-03-16T05:25:47;100031.88;;;19.60;25.58
49529;BME280;35423;37.320;-121.762;2023-03-16T05:28:13;100039.57;;;19.49;26.00
49529;BME280;35423;37.320;-121.762;2023-03-16T05:30:38;100045.20;;;19.66;26.16
49529;BME280;35423;37.320;-121.762;2023-03-16T05:33:05;100046.10;;;19.29;26.29
49529;BME280;35423;37.320;-121.762;2023-03-16T05:35:34;100050.07;;;19.47;26.33
49529;BME280;35423;37.320;-121.762;2023-03-16T05:38:01;100048.26;;;19.54;26.43
49529;BME280;35423;37.320;-121.762;2023-03-16T05:40:25;100045.33;;;19.19;26.56
49529;BME280;35423;37.320;-121.762;2023-03-16T05:42:55;100045.90;;;18.81;26.63
49529;BME280;35423;37.320;-121.762;2023-03-16T05:45:19;100047.03;;;19.00;26.64
49529;BME280;35423;37.320;-121.762;2023-03-16T05:47:44;100046.78;;;18.68;26.47
49529;BME280;35423;37.320;-121.762;2023-03-16T05:50:15;100043.25;;;19.06;26.50
49529;BME280;35423;37.320;-121.762;2023-03-16T05:52:39;100041.35;;;18.77;26.53
49529;BME280;35423;37.320;-121.762;2023-03-16T05:55:06;100042.93;;;18.70;26.55
49529;BME280;35423;37.320;-121.762;2023-03-16T05:57:30;100042.98;;;18.83;26.63
49529;BME280;35423;37.320;-121.762;2023-03-16T05:59:57;100041.76;;;18.78;26.71
49529;BME280;35423;37.320;-121.762;2023-03-16T06:02:22;100036.92;;;18.71;26.71
49529;BME280;35423;37.320;-121.762;2023-03-16T06:04:59;100028.37;;;18.80;26.86
49529;BME280;35423;37.320;-121.762;2023-03-16T06:07:28;100029.05;;;18.50;26.97
49529;BME280;35423;37.320;-121.762;2023-03-16T06:09:53;100027.06;;;18.47;26.95
49529;BME280;35423;37.320;-121.762;2023-03-16T06:12:22;100030.62;;;18.62;27.02
49529;BME280;35423;37.320;-121.762;2023-03-16T06:14:49;100033.26;;;18.36;27.07
49529;BME280;35423;37.320;-121.762;2023-03-16T06:17:22;100038.91;;;18.52;27.12
49529;BME280;35423;37.320;-121.762;2023-03-16T06:19:49;100045.19;;;18.26;27.19
49529;BME280;35423;37.320;-121.762;2023-03-16T06:22:16;100045.23;;;18.23;27.21
49529;BME280;35423;37.320;-121.762;2023-03-16T06:24:41;100044.27;;;18.20;27.21
49529;BME280;35423;37.320;-121.762;2023-03-16T06:27:06;100045.16;;;18.12;27.20
49529;BME280;35423;37.320;-121.762;2023-03-16T06:29:33;100044.75;;;18.02;27.24
49529;BME280;35423;37.320;-121.762;2023-03-16T06:32:07;100041.93;;;18.17;27.26
49529;BME280;35423;37.320;-121.762;2023-03-16T06:34:34;100040.76;;;18.04;27.42
49529;BME280;35423;37.320;-121.762;2023-03-16T06:37:02;100040.04;;;17.96;27.52
49529;BME280;35423;37.320;-121.762;2023-03-16T06:39:27;100041.65;;;17.68;27.58
49529;BME280;35423;37.320;-121.762;2023-03-16T06:41:56;100045.48;;;17.62;27.68
49529;BME280;35423;37.320;-121.762;2023-03-16T06:44:23;100047.93;;;17.79;27.81
49529;BME280;35423;37.320;-121.762;2023-03-16T06:46:48;100049.81;;;18.04;27.78
49529;BME280;35423;37.320;-121.762;2023-03-16T06:49:15;100054.94;;;17.71;27.86
49529;BME280;35423;37.320;-121.762;2023-03-16T06:51:42;100056.14;;;17.94;27.89
49529;BME280;35423;37.320;-121.762;2023-03-16T06:54:19;100054.37;;;17.86;28.03
49529;BME280;35423;37.320;-121.762;2023-03-16T06:56:45;100051.96;;;17.51;28.08
49529;BME280;35423;37.320;-121.762;2023-03-16T06:59:14;100050.50;;;17.73;28.09
49529;BME280;35423;37.320;-121.762;2023-03-16T07:01:39;100047.31;;;17.69;28.16
49529;BME280;35423;37.320;-121.762;2023-03-16T07:04:05;100045.52;;;17.59;28.25
49529;BME280;35423;37.320;-121.762;2023-03-16T07:06:31;100048.65;;;17.26;28.31
49529;BME280;35423;37.320;-121.762;2023-03-16T07:08:57;100053.66;;;17.18;28.37
49529;BME280;35423;37.320;-121.762;2023-03-16T07:11:26;100064.02;;;17.40;28.43
49529;BME280;35423;37.320;-121.762;2023-03-16T07:13:50;100073.91;;;17.35;28.44
49529;BME280;35423;37.320;-121.762;2023-03-16T07:16:18;100081.90;;;17.29;28.41
49529;BME280;35423;37.320;-121.762;2023-03-16T07:18:43;100084.75;;;17.22;28.43
49529;BME280;35423;37.320;-121.762;2023-03-16T07:21:11;100081.95;;;16.84;28.51
49529;BME280;35423;37.320;-121.762;2023-03-16T07:23:37;100083.29;;;17.04;28.57
49529;BME280;35423;37.320;-121.762;2023-03-16T07:26:02;100083.20;;;16.99;28.57
49529;BME280;35423;37.320;-121.762;2023-03-16T07:28:37;100085.36;;;16.91;28.67
49529;BME280;35423;37.320;-121.762;2023-03-16T07:31:08;100082.62;;;17.06;28.74
49529;BME280;35423;37.320;-121.762;2023-03-16T07:33:30;100075.58;;;16.81;28.76
49529;BME280;35423;37.320;-121.762;2023-03-16T07:35:56;100070.31;;;16.79;28.76
49529;BME280;35423;37.320;-121.762;2023-03-16T07:48:21;100055.13;;;16.62;29.36
49529;BME280;35423;37.320;-121.762;2023-03-16T07:50:38;100056.31;;;16.62;29.35
49529;BME280;35423;37.320;-121.762;2023-03-16T07:53:08;100055.84;;;16.80;29.27
49529;BME280;35423;37.320;-121.762;2023-03-16T07:55:33;100057.46;;;16.54;29.23
49529;BME280;35423;37.320;-121.762;2023-03-16T07:57:59;100059.73;;;16.71;29.30
49529;BME280;35423;37.320;-121.762;2023-03-16T08:00:25;100057.26;;;16.67;29.33
49529;BME280;35423;37.320;-121.762;2023-03-16T08:02:57;100055.77;;;16.63;29.34
49529;BME280;35423;37.320;-121.762;2023-03-16T08:05:22;100053.91;;;16.55;29.38
49529;BME280;35423;37.320;-121.762;2023-03-16T08:07:49;100052.40;;;16.75;29.46
49529;BME280;35423;37.320;-121.762;2023-03-16T08:10:18;100054.98;;;16.46;29.43
49529;BME280;35423;37.320;-121.762;2023-03-16T08:12:45;100055.92;;;16.39;29.51
49529;BME280;35423;37.320;-121.762;2023-03-16T08:15:15;100059.32;;;16.38;29.50
49529;BME280;35423;37.320;-121.762;2023-03-16T08:17:42;100060.97;;;16.30;29.48
49529;BME280;35423;37.320;-121.762;2023-03-16T08:20:09;100065.89;;;16.26;29.51
49529;BME280;35423;37.320;-121.762;2023-03-16T08:22:33;100064.70;;;16.24;29.52
49529;BME280;35423;37.320;-121.762;2023-03-16T08:25:01;100067.50;;;16.17;29.60
49529;BME280;35423;37.320;-121.762;2023-03-16T08:27:30;100067.99;;;16.09;29.69
49529;BME280;35423;37.320;-121.762;2023-03-16T08:29:57;100068.40;;;16.02;29.78
49529;BME280;35423;37.320;-121.762;2023-03-16T08:32:23;100070.24;;;15.95;29.86
49529;BME280;35423;37.320;-121.762;2023-03-16T08:34:51;100073.55;;;15.89;29.89
49529;BME280;35423;37.320;-121.762;2023-03-16T08:37:17;100075.19;;;15.83;29.97
49529;BME280;35423;37.320;-121.762;2023-03-16T08:39:45;100070.29;;;16.03;30.05
49529;BME280;35423;37.320;-121.762;2023-03-16T08:42:11;100072.11;;;15.75;30.10
49529;BME280;35423;37.320;-121.762;2023-03-16T08:44:36;100070.12;;;15.70;30.17
49529;BME280;35423;37.320;-121.762;2023-03-16T08:47:05;100068.87;;;15.65;30.20
49529;BME280;35423;37.320;-121.762;2023-03-16T08:49:32;100071.06;;;15.59;30.25
49529;BME280;35423;37.320;-121.762;2023-03-16T08:52:08;100074.90;;;15.55;30.29
49529;BME280;35423;37.320;-121.762;2023-03-16T08:54:30;100077.77;;;15.98;30.32
49529;BME280;35423;37.320;-121.762;2023-03-16T08:56:56;100079.12;;;15.70;30.32
49529;BME280;35423;37.320;-121.762;2023-03-16T08:59:25;100083.24;;;15.91;30.33
49529;BME280;35423;37.320;-121.762;2023-03-16T09:01:54;100083.43;;;15.59;30.38
49529;BME280;35423;37.320;-121.762;2023-03-16T09:04:18;100083.64;;;15.53;30.47
49529;BME280;35423;37.320;-121.762;2023-03-16T09:06:47;100084.53;;;15.49;30.49
49529;BME280;35423;37.320;-121.762;2023-03-16T09:09:13;100085.46;;;15.42;30.55
49529;BME280;35423;37.320;-121.762;2023-03-16T09:11:40;100084.39;;;15.62;30.62
49529;BME280;35423;37.320;-121.762;2023-03-16T09:14:10;100077.56;;;15.57;30.70
49529;BME280;35423;37.320;-121.762;2023-03-16T09:16:35;100075.08;;;15.27;30.77
49529;BME280;35423;37.320;-121.762;2023-03-16T09:19:00;100074.16;;;15.44;30.86
49529;BME280;35423;37.320;-121.762;2023-03-16T09:21:27;100082.92;;;15.42;30.93
49529;BME280;35423;37.320;-121.762;2023-03-16T09:23:52;100085.97;;;15.38;30.98
49529;BME280;35423;37.320;-121.762;2023-03-16T09:26:19;100080.92;;;15.37;30.95
49529;BME280;35423;37.320;-121.762;2023-03-16T09:28:46;100075.24;;;15.32;30.97
49529;BME280;35423;37.320;-121.762;2023-03-16T09:31:15;100071.28;;;15.27;31.00
49529;BME280;35423;37.320;-121.762;2023-03-16T09:33:37;100070.98;;;15.00;31.05
49529;BME280;35423;37.320;-121.762;2023-03-16T09:36:05;100069.76;;;15.18;31.16
49529;BME280;35423;37.320;-121.762;2023-03-16T09:38:29;100067.61;;;15.15;31.19
49529;BME280;35423;37.320;-121.762;2023-03-16T09:40:59;100063.83;;;15.13;31.19
49529;BME280;35423;37.320;-121.762;2023-03-16T09:43:29;100063.28;;;15.10;31.22
49529;BME280;35423;37.320;-121.762;2023-03-16T09:45:51;100060.86;;;15.07;31.24
49529;BME280;35423;37.320;-121.762;2023-03-16T09:48:15;100061.25;;;14.81;31.27
49529;BME280;35423;37.320;-121.762;2023-03-16T09:50:41;100065.51;;;15.00;31.27
49529;BME280;35423;37.320;-121.762;2023-03-16T09:53:11;100066.08;;;14.95;31.30
49529;BME280;35423;37.320;-121.762;2023-03-16T09:55:42;100066.31;;;14.91;31.35
49529;BME280;35423;37.320;-121.762;2023-03-16T09:58:14;100071.78;;;14.89;31.40
49529;BME280;35423;37.320;-121.762;2023-03-16T10:00:39;100076.49;;;14.87;31.39
49529;BME280;35423;37.320;-121.762;2023-03-16T10:03:15;100077.71;;;14.83;31.44
49529;BME280;35423;37.320;-121.762;2023-03-16T10:05:39;100076.31;;;15.27;31.48
49529;BME280;35423;37.320;-121.762;2023-03-16T10:08:11;100076.99;;;14.75;31.52
49529;BME280;35423;37.320;-121.762;2023-03-16T10:10:46;100082.09;;;14.72;31.58
49529;BME280;35423;37.320;-121.762;2023-03-16T10:12:59;100085.69;;;14.96;31.61
49529;BME280;35423;37.320;-121.762;2023-03-16T10:15:26;100090.96;;;14.92;31.66
49529;BME280;35423;37.320;-121.762;2023-03-16T10:17:52;100089.65;;;14.62;31.65
49529;BME280;35423;37.320;-121.762;2023-03-16T10:20:17;100091.84;;;14.62;31.59
49529;BME280;35423;37.320;-121.762;2023-03-16T10:22:52;100094.68;;;15.09;31.55
49529;BME280;35423;37.320;-121.762;2023-03-16T10:25:21;100096.75;;;14.51;31.62
49529;BME280;35423;37.320;-121.762;2023-03-16T10:27:44;100098.94;;;14.71;31.72
49529;BME280;35423;37.320;-121.762;2023-03-16T10:30:21;100100.47;;;14.42;31.73
49529;BME280;35423;37.320;-121.762;2023-03-16T10:32:40;100103.13;;;14.66;31.80
49529;BME280;35423;37.320;-121.762;2023-03-16T10:35:13;100104.73;;;14.63;31.79
49529;BME280;35423;37.320;-121.762;2023-03-16T10:37:32;100106.87;;;14.59;31.86
49529;BME280;35423;37.320;-121.762;2023-03-16T10:40:00;100107.68;;;14.28;31.85
49529;BME280;35423;37.320;-121.762;2023-03-16T10:42:27;100109.61;;;14.28;31.87
49529;BME280;35423;37.320;-121.762;2023-03-16T10:44:57;100110.67;;;14.54;31.88
49529;BME280;35423;37.320;-121.762;2023-03-16T10:47:27;100109.83;;;14.24;31.92
49529;BME280;35423;37.320;-121.762;2023-03-16T10:49:51;100110.17;;;14.49;31.96
49529;BME280;35423;37.320;-121.762;2023-03-16T10:52:30;100110.69;;;14.70;31.96
49529;BME280;35423;37.320;-121.762;2023-03-16T10:54:53;100107.03;;;14.43;32.03
49529;BME280;35423;37.320;-121.762;2023-03-16T10:57:24;100106.04;;;14.40;32.08
49529;BME280;35423;37.320;-121.762;2023-03-16T10:59:49;100111.89;;;14.37;32.14
49529;BME280;35423;37.320;-121.762;2023-03-16T11:02:16;100111.95;;;14.56;32.20
49529;BME280;35423;37.320;-121.762;2023-03-16T11:04:39;100109.41;;;14.33;32.19
49529;BME280;35423;37.320;-121.762;2023-03-16T11:07:05;100111.31;;;14.32;32.18
49529;BME280;35423;37.320;-121.762;2023-03-16T11:09:34;100109.75;;;14.50;32.25
49529;BME280;35423;37.320;-121.762;2023-03-16T11:12:00;100109.74;;;14.47;32.26
49529;BME280;35423;37.320;-121.762;2023-03-16T11:14:27;100108.31;;;14.44;32.31
49529;BME280;35423;37.320;-121.762;2023-03-16T11:17:01;100104.15;;;14.20;32.35
49529;BME280;35423;37.320;-121.762;2023-03-16T11:19:25;100100.23;;;14.20;32.37
49529;BME280;35423;37.320;-121.762;2023-03-16T11:21:59;100096.51;;;14.41;32.41
49529;BME280;35423;37.320;-121.762;2023-03-16T11:24:20;100098.96;;;14.11;32.49
49529;BME280;35423;37.320;-121.762;2023-03-16T11:26:44;100099.43;;;14.32;32.48
49529;BME280;35423;37.320;-121.762;2023-03-16T11:29:17;100100.14;;;14.09;32.47
49529;BME280;35423;37.320;-121.762;2023-03-16T11:31:44;100097.08;;;14.29;32.50
49529;BME280;35423;37.320;-121.762;2023-03-16T11:34:12;100094.23;;;14.04;32.55
49529;BME280;35423;37.320;-121.762;2023-03-16T11:36:41;100091.75;;;14.24;32.57
49529;BME280;35423;37.320;-121.762;2023-03-16T11:39:09;100091.06;;;14.23;32.57
49529;BME280;35423;37.320;-121.762;2023-03-16T11:41:33;100087.65;;;14.02;32.56
49529;BME280;35423;37.320;-121.762;2023-03-16T11:43:55;100084.15;;;14.19;32.61
49529;BME280;35423;37.320;-121.762;2023-03-16T11:46:22;100086.01;;;13.95;32.62
49529;BME280;35423;37.320;-121.762;2023-03-16T11:51:26;100086.50;;;14.14;32.65
49529;BME280;35423;37.320;-121.762;2023-03-16T11:53:49;100088.60;;;14.15;32.63
49529;BME280;35423;37.320;-121.762;2023-03-16T11:56:19;100087.92;;;13.90;32.68
49529;BME280;35423;37.320;-121.762;2023-03-16T11:58:48;100088.86;;;14.12;32.68
49529;BME280;35423;37.320;-121.762;2023-03-16T12:01:10;100088.95;;;14.31;32.74
49529;BME280;35423;37.320;-121.762;2023-03-16T12:03:53;100091.39;;;14.04;32.83
49529;BME280;35423;37.320;-121.762;2023-03-16T12:06:00;100093.94;;;14.00;32.95
49529;BME280;35423;37.320;-121.762;2023-03-16T12:08:32;100094.87;;;13.96;32.93
49529;BME280;35423;37.320;-121.762;2023-03-16T12:10:53;100094.41;;;14.14;33.07
49529;BME280;35423;37.320;-121.762;2023-03-16T12:13:33;100095.43;;;13.90;33.04
49529;BME280;35423;37.320;-121.762;2023-03-16T12:15:52;100093.13;;;14.11;33.06
49529;BME280;35423;37.320;-121.762;2023-03-16T12:18:20;100092.68;;;13.84;33.10
49529;BME280;35423;37.320;-121.762;2023-03-16T12:20:54;100088.56;;;13.77;33.14
49529;BME280;35423;37.320;-121.762;2023-03-16T12:23:18;100085.90;;;13.96;33.23
49529;BME280;35423;37.320;-121.762;2023-03-16T12:25:44;100086.01;;;14.20;33.16
49529;BME280;35423;37.320;-121.762;2023-03-16T12:28:15;100085.22;;;13.66;33.18
49529;BME280;35423;37.320;-121.762;2023-03-16T12:30:39;100085.23;;;13.85;33.22
49529;BME280;35423;37.320;-121.762;2023-03-16T12:33:12;100088.93;;;13.84;33.27
49529;BME280;35423;37.320;-121.762;2023-03-16T12:35:39;100089.02;;;13.79;33.33